createdAt,value
2022-08-01T00:00:57.019Z,18.33
2022-08-01T00:03:24.895Z,18.34
2022-08-01T00:05:52.804Z,18.29
2022-08-01T00:08:20.723Z,18.25
2022-08-01T00:10:48.667Z,18.25
2022-08-01T00:13:16.751Z,18.24
2022-08-01T00:15:53.670Z,18.21
2022-08-01T00:18:23.777Z,18.23
2022-08-01T00:20:51.662Z,18.20
2022-08-01T00:23:19.560Z,18.19
2022-08-01T00:25:49.907Z,18.18
2022-08-01T00:28:17.800Z,18.18
2022-08-01T00:30:45.720Z,18.15
2022-08-01T00:33:13.619Z,18.14
2022-08-01T00:35:42.939Z,18.14
2022-08-01T00:38:11.996Z,18.14
2022-08-01T00:40:39.918Z,18.10
2022-08-01T00:43:07.922Z,18.09
2022-08-01T00:45:36.063Z,18.11
2022-08-01T00:48:04.054Z,18.11
2022-08-01T00:50:32.041Z,18.08
2022-08-01T00:53:02.330Z,18.06
2022-08-01T00:55:31.255Z,18.00
2022-08-01T00:58:02.654Z,17.98
2022-08-01T01:00:34.943Z,17.94
2022-08-01T01:03:23.828Z,17.90
2022-08-01T01:06:07.436Z,17.87
2022-08-01T01:08:41.814Z,17.83
2022-08-01T01:11:16.562Z,17.82
2022-08-01T01:13:50.154Z,17.78
2022-08-01T01:16:22.296Z,17.75
2022-08-01T01:18:53.813Z,17.74
2022-08-01T01:21:56.466Z,17.71
2022-08-01T01:24:37.581Z,17.70
2022-08-01T01:27:17.059Z,17.69
2022-08-01T01:29:59.692Z,17.64
2022-08-01T01:32:35.502Z,17.61
2022-08-01T01:35:08.513Z,17.56
2022-08-01T01:37:39.946Z,17.56
2022-08-01T01:40:11.875Z,17.50
2022-08-01T01:42:42.278Z,17.45
2022-08-01T01:45:11.580Z,17.35
2022-08-01T01:47:41.120Z,17.38
2022-08-01T01:50:13.355Z,17.35
2022-08-01T01:52:44.503Z,17.32
2022-08-01T01:55:12.871Z,17.30
2022-08-01T01:57:43.524Z,17.30
2022-08-01T02:00:16.158Z,17.30
2022-08-01T02:02:45.246Z,17.25
2022-08-01T02:05:14.947Z,17.23
2022-08-01T02:07:43.963Z,17.25
2022-08-01T02:10:13.432Z,17.24
2022-08-01T02:12:46.590Z,17.22
2022-08-01T02:15:17.823Z,17.22
2022-08-01T02:17:49.669Z,17.21
2022-08-01T02:20:18.649Z,17.17
2022-08-01T02:22:52.261Z,17.16
2022-08-01T02:25:24.866Z,17.14
2022-08-01T02:28:01.611Z,17.14
2022-08-01T02:30:36.267Z,17.12
2022-08-01T02:33:15.412Z,17.08
2022-08-01T02:36:29.787Z,17.05
2022-08-01T02:38:37.363Z,17.01
2022-08-01T02:41:09.884Z,17.00
2022-08-01T02:43:41.003Z,16.97
2022-08-01T02:46:13.763Z,16.93
2022-08-01T02:48:45.028Z,16.88
2022-08-01T02:51:14.617Z,16.79
2022-08-01T02:53:45.037Z,16.78
2022-08-01T02:56:13.962Z,16.64
2022-08-01T02:58:44.734Z,16.66
2022-08-01T03:01:17.201Z,16.59
2022-08-01T03:03:48.450Z,16.55
2022-08-01T03:06:17.708Z,16.53
2022-08-01T03:08:47.115Z,16.50
2022-08-01T03:11:15.788Z,16.50
2022-08-01T03:13:46.775Z,16.51
2022-08-01T03:16:18.291Z,16.46
2022-08-01T03:18:47.443Z,16.42
2022-08-01T03:21:16.378Z,16.44
2022-08-01T03:23:46.895Z,16.41
2022-08-01T03:26:14.906Z,16.31
2022-08-01T03:28:46.543Z,16.35
2022-08-01T03:31:17.115Z,16.35
2022-08-01T03:33:45.047Z,16.36
2022-08-01T03:36:15.043Z,16.37
2022-08-01T03:38:44.947Z,16.35
2022-08-01T03:41:17.978Z,16.35
2022-08-01T03:43:50.275Z,16.36
2022-08-01T03:46:25.423Z,16.35
2022-08-01T03:48:57.710Z,16.33
2022-08-01T03:51:26.347Z,16.30
2022-08-01T03:53:58.060Z,16.28
2022-08-01T03:56:27.359Z,16.25
2022-08-01T03:58:56.408Z,16.22
2022-08-01T04:01:26.290Z,16.22
2022-08-01T04:03:54.810Z,16.45
2022-08-01T04:06:23.399Z,16.70
2022-08-01T04:08:57.416Z,16.57
2022-08-01T04:11:26.968Z,16.61
2022-08-01T04:13:55.846Z,16.69
2022-08-01T04:16:25.605Z,16.66
2022-08-01T04:18:53.563Z,16.71
2022-08-01T04:21:25.994Z,16.79
2022-08-01T04:23:56.191Z,16.89
2022-08-01T04:26:24.568Z,17.02
2022-08-01T04:28:55.787Z,17.12
2022-08-01T04:31:27.643Z,17.18
2022-08-01T04:33:57.844Z,17.26
2022-08-01T04:36:29.306Z,17.40
2022-08-01T04:39:00.999Z,17.57
2022-08-01T04:41:29.558Z,17.73
2022-08-01T04:44:00.224Z,17.81
2022-08-01T04:46:30.754Z,17.87
2022-08-01T04:48:58.561Z,17.98
2022-08-01T04:51:26.600Z,18.05
2022-08-01T04:53:54.641Z,18.12
2022-08-01T04:56:22.821Z,18.20
2022-08-01T04:59:17.633Z,18.25
2022-08-01T05:01:52.653Z,18.32
2022-08-01T05:04:20.674Z,18.41
2022-08-01T05:06:48.602Z,18.51
2022-08-01T05:09:17.017Z,18.56
2022-08-01T05:11:44.922Z,18.66
2022-08-01T05:14:12.911Z,18.72
2022-08-01T05:16:40.927Z,18.74
2022-08-01T05:19:10.632Z,18.79
2022-08-01T05:21:38.758Z,18.80
2022-08-01T05:24:07.246Z,18.87
2022-08-01T05:26:36.831Z,18.89
2022-08-01T05:29:05.401Z,18.95
2022-08-01T05:31:35.207Z,19.02
2022-08-01T05:34:03.340Z,19.10
2022-08-01T05:36:32.693Z,19.15
2022-08-01T05:39:00.734Z,19.24
2022-08-01T05:41:28.640Z,19.35
2022-08-01T05:43:56.592Z,19.48
2022-08-01T05:46:27.442Z,19.58
2022-08-01T05:48:55.860Z,19.66
2022-08-01T05:51:23.831Z,19.75
2022-08-01T05:53:53.191Z,19.77
2022-08-01T05:56:21.651Z,19.82
2022-08-01T05:58:50.400Z,19.86
2022-08-01T06:01:18.660Z,19.89
2022-08-01T06:03:47.003Z,19.91
2022-08-01T06:06:16.128Z,19.95
2022-08-01T06:08:44.071Z,19.95
2022-08-01T06:11:13.637Z,19.95
2022-08-01T06:13:45.612Z,19.93
2022-08-01T06:16:17.122Z,19.94
2022-08-01T06:18:45.552Z,19.94
2022-08-01T06:21:13.424Z,19.95
2022-08-01T06:23:42.520Z,19.96
2022-08-01T06:26:10.967Z,19.97
2022-08-01T06:28:40.819Z,19.99
2022-08-01T06:31:08.730Z,20.00
2022-08-01T06:33:36.682Z,20.04
2022-08-01T06:36:05.178Z,20.07
2022-08-01T06:38:33.122Z,20.09
2022-08-01T06:41:01.029Z,20.10
2022-08-01T06:43:28.978Z,20.13
2022-08-01T06:45:58.395Z,20.12
2022-08-01T06:48:26.294Z,20.15
2022-08-01T06:51:09.041Z,20.20
2022-08-01T06:53:37.889Z,20.23
2022-08-01T06:56:06.774Z,20.27
2022-08-01T06:58:35.848Z,20.29
2022-08-01T07:01:08.198Z,20.31
2022-08-01T07:03:53.822Z,20.35
2022-08-01T07:06:23.845Z,20.37
2022-08-01T07:08:51.724Z,20.43
2022-08-01T07:11:19.823Z,20.48
2022-08-01T07:13:47.830Z,20.48
2022-08-01T07:16:17.880Z,20.48
2022-08-01T07:18:46.332Z,20.51
2022-08-01T07:21:38.369Z,20.50
2022-08-01T07:24:02.221Z,20.55
2022-08-01T07:26:39.242Z,20.58
2022-08-01T07:29:07.489Z,20.58
2022-08-01T07:31:36.809Z,20.60
2022-08-01T07:34:04.888Z,20.60
2022-08-01T07:36:32.795Z,20.61
2022-08-01T07:39:00.724Z,20.63
2022-08-01T07:41:53.029Z,20.64
2022-08-01T07:44:16.923Z,20.66
2022-08-01T07:46:46.183Z,20.69
2022-08-01T07:49:14.421Z,20.72
2022-08-01T07:51:42.416Z,20.79
2022-08-01T07:54:33.587Z,20.88
2022-08-01T07:57:02.154Z,20.93
2022-08-01T07:59:30.065Z,21.02
2022-08-01T08:01:59.444Z,21.09
2022-08-01T08:04:27.589Z,21.14
2022-08-01T08:06:55.904Z,21.28
2022-08-01T08:09:23.985Z,21.43
2022-08-01T08:11:52.289Z,21.60
2022-08-01T08:14:20.437Z,21.68
2022-08-01T08:16:48.371Z,21.66
2022-08-01T08:19:17.784Z,21.65
2022-08-01T08:21:46.053Z,21.74
2022-08-01T08:24:26.925Z,21.87
2022-08-01T08:26:56.698Z,21.93
2022-08-01T08:29:25.680Z,21.97
2022-08-01T08:31:55.769Z,21.96
2022-08-01T08:34:27.006Z,22.00
2022-08-01T08:36:56.175Z,22.08
2022-08-01T08:39:24.744Z,22.14
2022-08-01T08:41:52.763Z,22.26
2022-08-01T08:44:22.148Z,22.35
2022-08-01T08:46:53.122Z,22.39
2022-08-01T08:49:23.459Z,22.47
2022-08-01T08:51:53.594Z,22.46
2022-08-01T08:54:28.925Z,22.55
2022-08-01T08:57:01.723Z,22.61
2022-08-01T08:59:30.293Z,22.62
2022-08-01T09:01:58.963Z,22.63
2022-08-01T09:04:28.333Z,22.68
2022-08-01T09:06:57.582Z,22.71
2022-08-01T09:09:25.793Z,22.81
2022-08-01T09:11:57.525Z,22.83
2022-08-01T09:14:28.313Z,22.70
2022-08-01T09:17:02.875Z,22.60
2022-08-01T09:19:39.898Z,22.61
2022-08-01T09:22:12.361Z,22.63
2022-08-01T09:24:41.524Z,22.66
2022-08-01T09:27:22.114Z,22.72
2022-08-01T09:30:01.519Z,22.80
2022-08-01T09:32:35.191Z,22.94
2022-08-01T09:35:30.252Z,23.01
2022-08-01T09:40:54.953Z,23.13
2022-08-01T09:43:25.530Z,23.14
2022-08-01T09:45:55.707Z,23.16
2022-08-01T09:48:27.941Z,23.22
2022-08-01T09:51:04.223Z,23.24
2022-08-01T09:53:47.386Z,23.25
2022-08-01T09:56:23.253Z,23.29
2022-08-01T09:59:01.045Z,23.34
2022-08-01T10:01:36.662Z,23.27
2022-08-01T10:04:11.663Z,23.21
2022-08-01T10:06:40.988Z,23.25
2022-08-01T10:09:09.931Z,23.22
2022-08-01T10:11:41.015Z,23.25
2022-08-01T10:14:10.364Z,23.23
2022-08-01T10:16:39.319Z,23.27
2022-08-01T10:19:14.525Z,23.31
2022-08-01T10:21:57.497Z,23.32
2022-08-01T10:24:28.881Z,23.34
2022-08-01T10:27:05.510Z,23.45
2022-08-01T10:29:59.211Z,23.46
2022-08-01T10:32:28.760Z,23.45
2022-08-01T10:34:57.372Z,23.51
2022-08-01T10:37:26.952Z,23.52
2022-08-01T10:40:27.324Z,23.49
2022-08-01T10:42:47.055Z,23.43
2022-08-01T10:45:16.967Z,23.52
2022-08-01T10:47:53.195Z,23.56
2022-08-01T10:50:27.296Z,23.49
2022-08-01T10:53:23.298Z,23.55
2022-08-01T10:56:02.701Z,23.61
2022-08-01T10:58:39.840Z,23.70
2022-08-01T11:01:23.761Z,23.73
2022-08-01T11:04:04.503Z,23.72
2022-08-01T11:06:42.880Z,23.73
2022-08-01T11:09:37.270Z,23.76
2022-08-01T11:12:13.110Z,23.82
2022-08-01T11:15:29.838Z,23.80
2022-08-01T11:18:04.530Z,23.86
2022-08-01T11:20:34.669Z,23.85
2022-08-01T11:23:20.175Z,23.82
2022-08-01T11:26:14.486Z,23.75
2022-08-01T11:29:10.839Z,23.81
2022-08-01T11:31:37.476Z,23.74
2022-08-01T11:34:06.618Z,23.75
2022-08-01T11:36:58.235Z,23.78
2022-08-01T11:39:22.904Z,23.85
2022-08-01T11:41:51.049Z,23.91
2022-08-01T11:44:28.427Z,23.84
2022-08-01T11:47:09.403Z,23.82
2022-08-01T11:50:00.657Z,23.85
2022-08-01T11:52:30.370Z,23.93
2022-08-01T11:54:59.986Z,23.98
2022-08-01T11:57:34.233Z,24.09
2022-08-01T12:00:08.855Z,24.05
2022-08-01T12:02:38.542Z,23.91
2022-08-01T12:05:11.728Z,23.84
2022-08-01T12:07:41.588Z,23.76
2022-08-01T12:10:11.420Z,23.72
2022-08-01T12:12:46.024Z,23.71
2022-08-01T12:15:14.933Z,23.62
2022-08-01T12:17:57.702Z,23.59
2022-08-01T12:20:30.266Z,23.59
2022-08-01T12:22:59.594Z,23.59
2022-08-01T12:25:27.546Z,23.51
2022-08-01T12:27:56.802Z,23.43
2022-08-01T12:30:26.110Z,23.37
2022-08-01T12:32:56.990Z,23.36
2022-08-01T12:35:26.576Z,23.37
2022-08-01T12:37:56.541Z,23.34
2022-08-01T12:40:25.873Z,23.29
2022-08-01T12:42:55.412Z,23.25
2022-08-01T12:45:26.558Z,23.13
2022-08-01T12:47:58.584Z,23.09
2022-08-01T12:50:29.464Z,23.03
2022-08-01T12:52:57.962Z,22.98
2022-08-01T12:55:34.627Z,22.90
2022-08-01T12:58:08.238Z,22.84
2022-08-01T13:00:40.982Z,22.83
2022-08-01T13:03:11.897Z,22.81
2022-08-01T13:05:46.932Z,22.79
2022-08-01T13:08:16.016Z,22.79
2022-08-01T13:10:45.005Z,22.81
2022-08-01T13:13:27.822Z,22.81
2022-08-01T13:16:07.004Z,22.81
2022-08-01T13:18:38.878Z,22.79
2022-08-01T13:21:11.560Z,22.81
2022-08-01T13:24:01.512Z,22.80
2022-08-01T13:26:41.099Z,22.78
2022-08-01T13:29:09.966Z,22.77
2022-08-01T13:31:39.280Z,22.82
2022-08-01T13:34:08.903Z,22.87
2022-08-01T13:36:37.475Z,22.89
2022-08-01T13:39:23.900Z,22.94
2022-08-01T13:41:51.838Z,23.03
2022-08-01T13:44:19.746Z,23.10
2022-08-01T13:46:49.904Z,23.13
2022-08-01T13:49:20.913Z,23.14
2022-08-01T13:51:52.026Z,23.16
2022-08-01T13:54:20.027Z,23.14
2022-08-01T13:56:48.096Z,23.13
2022-08-01T13:59:16.015Z,23.10
2022-08-01T14:01:44.480Z,23.12
2022-08-01T14:04:12.403Z,23.13
2022-08-01T14:06:41.921Z,23.07
2022-08-01T14:09:17.993Z,23.04
2022-08-01T14:11:46.232Z,22.92
2022-08-01T14:14:14.533Z,22.75
2022-08-01T14:16:42.409Z,22.64
2022-08-01T14:19:10.282Z,22.63
2022-08-01T14:21:38.210Z,22.67
2022-08-01T14:24:08.737Z,22.79
2022-08-01T14:26:36.378Z,22.81
2022-08-01T14:29:04.347Z,22.93
2022-08-01T14:31:34.443Z,22.93
2022-08-01T14:34:02.712Z,22.91
2022-08-01T14:36:32.491Z,22.89
2022-08-01T14:39:07.896Z,22.80
2022-08-01T14:41:42.874Z,22.77
2022-08-01T14:44:13.446Z,22.79
2022-08-01T14:46:57.240Z,22.74
2022-08-01T14:49:26.134Z,22.70
2022-08-01T14:51:54.231Z,22.66
2022-08-01T14:54:29.371Z,22.73
2022-08-01T14:56:57.899Z,22.71
2022-08-01T14:59:25.825Z,22.74
2022-08-01T15:01:53.763Z,22.76
2022-08-01T15:04:21.706Z,22.78
2022-08-01T15:06:49.609Z,22.81
2022-08-01T15:09:17.700Z,22.85
2022-08-01T15:11:47.938Z,22.86
2022-08-01T15:17:01.171Z,22.68
2022-08-01T15:19:29.072Z,22.63
2022-08-01T15:21:57.079Z,22.66
2022-08-01T15:24:24.991Z,22.62
2022-08-01T15:26:54.268Z,22.60
2022-08-01T15:29:22.231Z,22.54
2022-08-01T15:31:52.752Z,22.46
2022-08-01T15:34:20.405Z,22.32
2022-08-01T15:36:48.621Z,22.35
2022-08-01T15:39:17.519Z,22.29
2022-08-01T15:41:45.574Z,22.24
2022-08-01T15:44:15.338Z,22.27
2022-08-01T15:46:43.312Z,22.22
2022-08-01T15:49:11.797Z,22.24
2022-08-01T15:51:39.980Z,22.21
2022-08-01T15:54:11.577Z,22.23
2022-08-01T15:56:42.621Z,22.20
2022-08-01T15:59:10.555Z,22.23
2022-08-01T16:01:40.034Z,22.27
2022-08-01T16:04:08.907Z,22.30
2022-08-01T16:06:37.817Z,22.36
2022-08-01T16:09:06.276Z,22.43
2022-08-01T16:11:35.225Z,22.44
2022-08-01T16:14:05.438Z,22.49
2022-08-01T16:16:33.572Z,22.57
2022-08-01T16:19:02.858Z,22.57
2022-08-01T16:21:30.762Z,22.61
2022-08-01T16:23:58.671Z,22.59
2022-08-01T16:26:27.894Z,22.58
2022-08-01T16:28:56.314Z,22.50
2022-08-01T16:31:51.582Z,22.46
2022-08-01T16:34:13.924Z,22.51
2022-08-01T16:36:43.231Z,22.51
2022-08-01T16:39:12.422Z,22.56
2022-08-01T16:41:40.385Z,22.56
2022-08-01T16:44:08.299Z,22.57
2022-08-01T16:46:36.219Z,22.60
2022-08-01T16:49:06.313Z,22.67
2022-08-01T16:51:39.576Z,22.69
2022-08-01T16:54:25.707Z,22.77
2022-08-01T16:56:54.312Z,22.73
2022-08-01T16:59:22.321Z,22.74
2022-08-01T17:01:59.495Z,22.73
2022-08-01T17:04:30.205Z,22.73
2022-08-01T17:06:59.774Z,22.71
2022-08-01T17:09:27.712Z,22.73
2022-08-01T17:11:55.661Z,22.72
2022-08-01T17:14:23.704Z,22.71
2022-08-01T17:16:51.633Z,22.74
2022-08-01T17:19:19.536Z,22.74
2022-08-01T17:21:54.764Z,22.75
2022-08-01T17:24:24.551Z,22.73
2022-08-01T17:26:52.410Z,22.65
2022-08-01T17:29:20.279Z,22.60
2022-08-01T17:31:48.229Z,22.52
2022-08-01T17:34:16.713Z,22.48
2022-08-01T17:36:44.647Z,22.42
2022-08-01T17:39:13.563Z,22.40
2022-08-01T17:41:43.159Z,22.34
2022-08-01T17:44:11.528Z,22.31
2022-08-01T17:46:39.443Z,22.30
2022-08-01T17:49:07.378Z,22.28
2022-08-01T17:51:35.319Z,22.24
2022-08-01T17:54:03.204Z,22.19
2022-08-01T17:56:34.740Z,22.19
2022-08-01T17:59:06.958Z,22.17
2022-08-01T18:01:35.865Z,22.11
2022-08-01T18:04:04.066Z,22.10
2022-08-01T18:06:31.969Z,22.05
2022-08-01T18:09:04.598Z,22.01
2022-08-01T18:11:37.842Z,21.96
2022-08-01T18:14:07.502Z,21.91
2022-08-01T18:16:35.430Z,21.85
2022-08-01T18:19:03.376Z,21.82
2022-08-01T18:21:32.206Z,21.78
2022-08-01T18:24:01.465Z,21.73
2022-08-01T18:26:29.458Z,21.73
2022-08-01T18:28:57.362Z,21.67
2022-08-01T18:31:27.350Z,21.64
2022-08-01T18:33:55.263Z,21.58
2022-08-01T18:36:31.410Z,21.54
2022-08-01T18:39:04.327Z,21.46
2022-08-01T18:41:33.052Z,21.41
2022-08-01T18:44:05.538Z,21.33
2022-08-01T18:46:38.983Z,21.26
2022-08-01T18:49:07.040Z,21.12
2022-08-01T18:51:38.915Z,21.13
2022-08-01T18:54:11.197Z,21.10
2022-08-01T18:56:39.104Z,21.10
2022-08-01T18:59:07.534Z,21.10
2022-08-01T19:01:35.510Z,21.07
2022-08-01T19:04:04.827Z,21.02
2022-08-01T19:06:32.885Z,20.95
2022-08-01T19:09:02.578Z,20.91
2022-08-01T19:11:30.915Z,20.87
2022-08-01T19:13:59.069Z,20.81
2022-08-01T19:16:27.890Z,20.77
2022-08-01T19:18:56.056Z,20.70
2022-08-01T19:21:26.134Z,20.65
2022-08-01T19:24:11.462Z,20.60
2022-08-01T19:26:41.382Z,20.56
2022-08-01T19:29:16.027Z,20.53
2022-08-01T19:31:48.543Z,20.48
2022-08-01T19:34:18.185Z,20.47
2022-08-01T19:36:48.970Z,20.45
2022-08-01T19:39:18.243Z,20.43
2022-08-01T19:41:47.255Z,20.33
2022-08-01T19:44:17.151Z,20.29
2022-08-01T19:46:45.643Z,20.21
2022-08-01T19:49:14.870Z,20.14
2022-08-01T19:51:44.436Z,20.12
2022-08-01T19:54:15.027Z,20.03
2022-08-01T19:56:46.827Z,20.01
2022-08-01T19:59:19.168Z,19.94
2022-08-01T20:01:48.262Z,19.87
2022-08-01T20:04:17.686Z,19.79
2022-08-01T20:06:46.392Z,19.76
2022-08-01T20:09:15.933Z,19.70
2022-08-01T20:11:45.820Z,19.65
2022-08-01T20:14:16.428Z,19.55
2022-08-01T20:16:44.343Z,19.48
2022-08-01T20:19:13.340Z,19.45
2022-08-01T20:21:45.183Z,19.38
2022-08-01T20:24:39.559Z,19.34
2022-08-01T20:27:10.378Z,19.32
2022-08-01T20:29:39.080Z,19.29
2022-08-01T20:32:08.087Z,19.25
2022-08-01T20:34:38.761Z,19.20
2022-08-01T20:37:12.531Z,19.13
2022-08-01T20:39:44.902Z,19.06
2022-08-01T20:42:14.305Z,18.99
2022-08-01T20:44:45.309Z,18.97
2022-08-01T20:47:14.291Z,18.93
2022-08-01T20:49:44.572Z,18.87
2022-08-01T20:52:12.939Z,18.82
2022-08-01T20:54:42.912Z,18.79
2022-08-01T20:57:20.987Z,18.72
2022-08-01T20:59:57.320Z,18.68
2022-08-01T21:02:57.147Z,18.63
2022-08-01T21:05:31.400Z,18.55
2022-08-01T21:08:05.024Z,18.52
2022-08-01T21:10:37.704Z,18.51
2022-08-01T21:13:07.533Z,18.48
2022-08-01T21:15:57.474Z,18.47
2022-08-01T21:18:37.807Z,18.41
2022-08-01T21:21:11.522Z,18.37
2022-08-01T21:23:47.831Z,18.34
2022-08-01T21:26:20.326Z,18.29
2022-08-01T21:28:53.530Z,18.27
2022-08-01T21:31:23.316Z,18.22
2022-08-01T21:34:02.275Z,18.20
2022-08-01T21:36:31.219Z,18.19
2022-08-01T21:39:00.780Z,18.19
2022-08-01T21:41:56.387Z,18.18
2022-08-01T21:44:19.970Z,18.15
2022-08-01T21:46:49.571Z,18.15
2022-08-01T21:49:17.556Z,18.14
2022-08-01T21:51:52.313Z,18.14
2022-08-01T21:54:28.224Z,18.09
2022-08-01T21:57:03.191Z,18.07
2022-08-01T21:59:44.463Z,18.04
2022-08-01T22:02:18.806Z,18.05
2022-08-01T22:04:52.219Z,18.04
2022-08-01T22:07:22.083Z,18.03
2022-08-01T22:09:51.321Z,18.02
2022-08-01T22:12:21.832Z,17.97
2022-08-01T22:14:53.371Z,17.84
2022-08-01T22:17:23.372Z,17.66
2022-08-01T22:19:54.069Z,17.55
2022-08-01T22:22:44.263Z,17.52
2022-08-01T22:25:13.075Z,17.46
2022-08-01T22:28:05.725Z,17.38
2022-08-01T22:30:30.709Z,17.25
2022-08-01T22:33:07.566Z,17.23
2022-08-01T22:35:45.753Z,17.17
2022-08-01T22:38:13.824Z,17.15
2022-08-01T22:40:49.267Z,17.12
2022-08-01T22:43:27.350Z,17.04
2022-08-01T22:46:07.515Z,16.97
2022-08-01T22:48:45.418Z,16.93
2022-08-01T22:51:23.532Z,16.88
2022-08-01T22:53:56.014Z,16.84
2022-08-01T22:56:24.549Z,16.74
2022-08-01T22:58:55.518Z,16.67
2022-08-01T23:01:29.607Z,16.59
2022-08-01T23:04:00.167Z,16.51
2022-08-01T23:06:35.141Z,16.30
2022-08-01T23:09:04.532Z,16.30
2022-08-01T23:11:33.709Z,16.25
2022-08-01T23:14:04.735Z,16.23
2022-08-01T23:16:32.914Z,16.20
2022-08-01T23:19:01.299Z,16.23
2022-08-01T23:21:30.594Z,16.23
2022-08-01T23:23:59.686Z,16.26
2022-08-01T23:26:30.292Z,16.32
2022-08-01T23:28:58.886Z,16.32
2022-08-01T23:31:58.231Z,16.29
2022-08-01T23:34:20.185Z,16.25
2022-08-01T23:36:48.370Z,16.20
2022-08-01T23:39:16.358Z,16.15
2022-08-01T23:41:57.355Z,16.06
2022-08-01T23:44:27.355Z,15.99
2022-08-01T23:46:56.673Z,15.89
2022-08-01T23:49:24.731Z,15.77
2022-08-01T23:51:52.904Z,15.66
2022-08-01T23:54:21.338Z,15.64
2022-08-01T23:56:49.497Z,15.60
2022-08-01T23:59:17.527Z,15.50
